sensor_id;sensor_type;location;lat;lon;timestamp;temperature;humidity
51613;DHT22;37694;51.748;14.326;2024-02-21T00:01:46;23.60;44.80
51613;DHT22;37694;51.748;14.326;2024-02-21T00:04:12;23.60;44.60
51613;DHT22;37694;51.748;14.326;2024-02-21T00:06:38;23.60;44.50
51613;DHT22;37694;51.748;14.326;2024-02-21T00:09:03;23.60;44.70
51613;DHT22;37694;51.748;14.326;2024-02-21T00:11:29;23.60;44.70
51613;DHT22;37694;51.748;14.326;2024-02-21T00:13:55;23.60;44.60
51613;DHT22;37694;51.748;14.326;2024-02-21T00:16:20;23.60;44.60
51613;DHT22;37694;51.748;14.326;2024-02-21T00:18:46;23.50;44.50
51613;DHT22;37694;51.748;14.326;2024-02-21T00:21:12;23.50;44.50
51613;DHT22;37694;51.748;14.326;2024-02-21T00:23:46;23.50;44.50
51613;DHT22;37694;51.748;14.326;2024-02-21T00:26:15;23.50;44.50
51613;DHT22;37694;51.748;14.326;2024-02-21T00:28:40;23.50;44.50
51613;DHT22;37694;51.748;14.326;2024-02-21T00:31:06;23.50;44.50
51613;DHT22;37694;51.748;14.326;2024-02-21T00:33:32;23.50;44.40
51613;DHT22;37694;51.748;14.326;2024-02-21T00:35:57;23.40;44.50
51613;DHT22;37694;51.748;14.326;2024-02-21T00:38:23;23.40;44.40
51613;DHT22;37694;51.748;14.326;2024-02-21T00:40:48;23.40;44.40
51613;DHT22;37694;51.748;14.326;2024-02-21T00:43:14;23.40;44.60
51613;DHT22;37694;51.748;14.326;2024-02-21T00:45:40;23.40;44.90
51613;DHT22;37694;51.748;14.326;2024-02-21T00:48:06;23.40;44.50
51613;DHT22;37694;51.748;14.326;2024-02-21T00:50:31;23.40;44.60
51613;DHT22;37694;51.748;14.326;2024-02-21T00:52:57;23.40;44.60
51613;DHT22;37694;51.748;14.326;2024-02-21T00:55:23;23.40;44.50
51613;DHT22;37694;51.748;14.326;2024-02-21T00:57:48;23.40;44.40
51613;DHT22;37694;51.748;14.326;2024-02-21T01:00:14;23.40;44.30
51613;DHT22;37694;51.748;14.326;2024-02-21T01:02:40;23.40;44.60
51613;DHT22;37694;51.748;14.326;2024-02-21T01:05:06;23.40;44.60
51613;DHT22;37694;51.748;14.326;2024-02-21T01:07:32;23.30;44.50
51613;DHT22;37694;51.748;14.326;2024-02-21T01:09:57;23.30;44.50
51613;DHT22;37694;51.748;14.326;2024-02-21T01:12:23;23.30;44.50
51613;DHT22;37694;51.748;14.326;2024-02-21T01:14:49;23.30;44.50
51613;DHT22;37694;51.748;14.326;2024-02-21T01:17:15;23.30;44.50
51613;DHT22;37694;51.748;14.326;2024-02-21T01:19:41;23.30;44.60
51613;DHT22;37694;51.748;14.326;2024-02-21T01:22:06;23.30;44.60
51613;DHT22;37694;51.748;14.326;2024-02-21T01:24:32;23.30;44.70
51613;DHT22;37694;51.748;14.326;2024-02-21T01:26:58;23.30;44.50
51613;DHT22;37694;51.748;14.326;2024-02-21T01:29:24;23.30;44.70
51613;DHT22;37694;51.748;14.326;2024-02-21T01:31:49;23.30;44.50
51613;DHT22;37694;51.748;14.326;2024-02-21T01:34:15;23.30;44.60
51613;DHT22;37694;51.748;14.326;2024-02-21T01:36:41;23.30;44.60
51613;DHT22;37694;51.748;14.326;2024-02-21T01:39:07;23.20;44.70
51613;DHT22;37694;51.748;14.326;2024-02-21T01:41:33;23.20;44.60
51613;DHT22;37694;51.748;14.326;2024-02-21T01:43:59;23.20;44.60
51613;DHT22;37694;51.748;14.326;2024-02-21T01:46:24;23.20;44.60
51613;DHT22;37694;51.748;14.326;2024-02-21T01:48:55;23.20;44.40
51613;DHT22;37694;51.748;14.326;2024-02-21T01:51:21;23.20;44.50
51613;DHT22;37694;51.748;14.326;2024-02-21T01:53:47;23.20;44.50
51613;DHT22;37694;51.748;14.326;2024-02-21T01:56:13;23.20;44.40
51613;DHT22;37694;51.748;14.326;2024-02-21T01:58:40;23.20;44.40
51613;DHT22;37694;51.748;14.326;2024-02-21T02:01:07;23.20;44.40
51613;DHT22;37694;51.748;14.326;2024-02-21T02:03:33;23.10;44.40
51613;DHT22;37694;51.748;14.326;2024-02-21T02:06:00;23.10;44.40
51613;DHT22;37694;51.748;14.326;2024-02-21T02:08:26;23.10;44.50
51613;DHT22;37694;51.748;14.326;2024-02-21T02:10:52;23.10;44.50
51613;DHT22;37694;51.748;14.326;2024-02-21T02:13:18;23.10;44.50
51613;DHT22;37694;51.748;14.326;2024-02-21T02:15:48;23.10;44.50
51613;DHT22;37694;51.748;14.326;2024-02-21T02:18:15;23.10;44.60
51613;DHT22;37694;51.748;14.326;2024-02-21T02:20:41;23.10;44.50
51613;DHT22;37694;51.748;14.326;2024-02-21T02:25:36;23.10;44.40
51613;DHT22;37694;51.748;14.326;2024-02-21T02:28:06;23.10;44.50
51613;DHT22;37694;51.748;14.326;2024-02-21T02:30:36;23.10;44.50
51613;DHT22;37694;51.748;14.326;2024-02-21T02:33:05;23.10;44.50
51613;DHT22;37694;51.748;14.326;2024-02-21T02:35:31;23.00;44.40
51613;DHT22;37694;51.748;14.326;2024-02-21T02:37:57;23.10;44.50
51613;DHT22;37694;51.748;14.326;2024-02-21T02:40:23;23.00;44.40
51613;DHT22;37694;51.748;14.326;2024-02-21T02:42:49;23.00;44.40
51613;DHT22;37694;51.748;14.326;2024-02-21T02:45:16;23.00;44.40
51613;DHT22;37694;51.748;14.326;2024-02-21T02:47:41;23.00;44.40
51613;DHT22;37694;51.748;14.326;2024-02-21T02:50:08;23.00;44.40
51613;DHT22;37694;51.748;14.326;2024-02-21T02:52:34;23.00;44.40
51613;DHT22;37694;51.748;14.326;2024-02-21T02:54:59;23.00;44.50
51613;DHT22;37694;51.748;14.326;2024-02-21T02:57:27;23.00;44.50
51613;DHT22;37694;51.748;14.326;2024-02-21T02:59:52;23.00;44.50
51613;DHT22;37694;51.748;14.326;2024-02-21T03:02:18;23.00;44.50
51613;DHT22;37694;51.748;14.326;2024-02-21T03:04:44;23.00;44.50
51613;DHT22;37694;51.748;14.326;2024-02-21T03:07:10;23.00;44.50
51613;DHT22;37694;51.748;14.326;2024-02-21T03:09:39;22.90;44.40
51613;DHT22;37694;51.748;14.326;2024-02-21T03:12:05;22.90;44.40
51613;DHT22;37694;51.748;14.326;2024-02-21T03:14:32;22.90;44.50
51613;DHT22;37694;51.748;14.326;2024-02-21T03:16:58;22.90;44.50
51613;DHT22;37694;51.748;14.326;2024-02-21T03:19:25;22.90;44.50
51613;DHT22;37694;51.748;14.326;2024-02-21T03:21:51;22.90;44.40
51613;DHT22;37694;51.748;14.326;2024-02-21T03:24:18;22.90;44.40
51613;DHT22;37694;51.748;14.326;2024-02-21T03:26:43;22.90;44.40
51613;DHT22;37694;51.748;14.326;2024-02-21T03:29:10;22.90;44.40
51613;DHT22;37694;51.748;14.326;2024-02-21T03:31:37;22.80;44.30
51613;DHT22;37694;51.748;14.326;2024-02-21T03:34:02;22.80;44.30
51613;DHT22;37694;51.748;14.326;2024-02-21T03:36:28;22.80;44.40
51613;DHT22;37694;51.748;14.326;2024-02-21T03:38:54;22.90;44.40
51613;DHT22;37694;51.748;14.326;2024-02-21T03:41:21;22.80;44.40
51613;DHT22;37694;51.748;14.326;2024-02-21T03:43:47;22.80;44.30
51613;DHT22;37694;51.748;14.326;2024-02-21T03:46:12;22.80;44.30
51613;DHT22;37694;51.748;14.326;2024-02-21T03:48:38;22.80;44.30
51613;DHT22;37694;51.748;14.326;2024-02-21T03:51:04;22.80;44.50
51613;DHT22;37694;51.748;14.326;2024-02-21T03:53:30;22.80;44.40
51613;DHT22;37694;51.748;14.326;2024-02-21T03:55:56;22.80;44.40
51613;DHT22;37694;51.748;14.326;2024-02-21T03:58:22;22.80;44.50
51613;DHT22;37694;51.748;14.326;2024-02-21T04:00:47;22.70;44.40
51613;DHT22;37694;51.748;14.326;2024-02-21T04:03:13;22.70;44.40
51613;DHT22;37694;51.748;14.326;2024-02-21T04:05:39;22.70;44.40
51613;DHT22;37694;51.748;14.326;2024-02-21T04:08:05;22.70;44.60
51613;DHT22;37694;51.748;14.326;2024-02-21T04:10:31;22.70;44.70
51613;DHT22;37694;51.748;14.326;2024-02-21T04:12:57;22.80;44.90
51613;DHT22;37694;51.748;14.326;2024-02-21T04:15:23;22.80;44.60
51613;DHT22;37694;51.748;14.326;2024-02-21T04:17:48;22.80;44.50
51613;DHT22;37694;51.748;14.326;2024-02-21T04:20:16;22.90;44.50
51613;DHT22;37694;51.748;14.326;2024-02-21T04:22:45;23.00;44.40
51613;DHT22;37694;51.748;14.326;2024-02-21T04:25:10;23.00;44.30
51613;DHT22;37694;51.748;14.326;2024-02-21T04:27:39;23.10;44.30
51613;DHT22;37694;51.748;14.326;2024-02-21T04:30:06;23.10;44.30
51613;DHT22;37694;51.748;14.326;2024-02-21T04:32:32;23.20;44.40
51613;DHT22;37694;51.748;14.326;2024-02-21T04:34:58;23.30;44.40
51613;DHT22;37694;51.748;14.326;2024-02-21T04:37:23;23.30;44.30
51613;DHT22;37694;51.748;14.326;2024-02-21T04:39:50;23.40;44.20
51613;DHT22;37694;51.748;14.326;2024-02-21T04:42:16;23.50;44.20
51613;DHT22;37694;51.748;14.326;2024-02-21T04:44:41;23.60;44.10
51613;DHT22;37694;51.748;14.326;2024-02-21T04:47:07;23.60;44.00
51613;DHT22;37694;51.748;14.326;2024-02-21T04:49:33;23.60;43.90
51613;DHT22;37694;51.748;14.326;2024-02-21T04:52:00;23.70;43.90
51613;DHT22;37694;51.748;14.326;2024-02-21T04:54:25;23.70;43.80
51613;DHT22;37694;51.748;14.326;2024-02-21T04:56:51;23.70;43.80
51613;DHT22;37694;51.748;14.326;2024-02-21T04:59:17;23.80;43.70
51613;DHT22;37694;51.748;14.326;2024-02-21T05:01:43;23.90;43.70
51613;DHT22;37694;51.748;14.326;2024-02-21T05:04:09;23.90;43.60
51613;DHT22;37694;51.748;14.326;2024-02-21T05:06:38;24.00;43.60
51613;DHT22;37694;51.748;14.326;2024-02-21T05:09:05;24.00;43.50
51613;DHT22;37694;51.748;14.326;2024-02-21T05:11:31;24.00;43.50
51613;DHT22;37694;51.748;14.326;2024-02-21T05:13:57;24.10;43.60
51613;DHT22;37694;51.748;14.326;2024-02-21T05:16:22;24.10;43.60
51613;DHT22;37694;51.748;14.326;2024-02-21T05:18:48;24.10;43.40
51613;DHT22;37694;51.748;14.326;2024-02-21T05:21:14;24.20;43.50
51613;DHT22;37694;51.748;14.326;2024-02-21T05:23:40;24.20;43.40
51613;DHT22;37694;51.748;14.326;2024-02-21T05:26:06;24.30;43.40
51613;DHT22;37694;51.748;14.326;2024-02-21T05:28:32;24.30;43.40
51613;DHT22;37694;51.748;14.326;2024-02-21T05:30:57;24.30;43.30
51613;DHT22;37694;51.748;14.326;2024-02-21T05:33:24;24.30;43.30
51613;DHT22;37694;51.748;14.326;2024-02-21T05:35:50;24.30;43.30
51613;DHT22;37694;51.748;14.326;2024-02-21T05:38:16;24.40;43.30
51613;DHT22;37694;51.748;14.326;2024-02-21T05:40:43;24.40;43.30
51613;DHT22;37694;51.748;14.326;2024-02-21T05:43:09;24.40;43.30
51613;DHT22;37694;51.748;14.326;2024-02-21T05:45:35;24.40;43.30
51613;DHT22;37694;51.748;14.326;2024-02-21T05:48:01;24.40;43.30
51613;DHT22;37694;51.748;14.326;2024-02-21T05:50:28;24.40;43.50
51613;DHT22;37694;51.748;14.326;2024-02-21T05:52:56;24.40;43.60
51613;DHT22;37694;51.748;14.326;2024-02-21T05:55:22;24.40;43.60
51613;DHT22;37694;51.748;14.326;2024-02-21T05:57:48;24.40;43.60
51613;DHT22;37694;51.748;14.326;2024-02-21T06:00:15;24.40;43.80
51613;DHT22;37694;51.748;14.326;2024-02-21T06:02:41;24.40;43.80
51613;DHT22;37694;51.748;14.326;2024-02-21T06:05:07;24.30;43.80
51613;DHT22;37694;51.748;14.326;2024-02-21T06:07:34;24.30;44.80
51613;DHT22;37694;51.748;14.326;2024-02-21T06:10:02;24.30;44.30
51613;DHT22;37694;51.748;14.326;2024-02-21T06:12:30;24.30;44.20
51613;DHT22;37694;51.748;14.326;2024-02-21T06:14:55;24.30;43.90
51613;DHT22;37694;51.748;14.326;2024-02-21T06:17:21;24.30;44.00
51613;DHT22;37694;51.748;14.326;2024-02-21T06:19:46;24.30;43.90
51613;DHT22;37694;51.748;14.326;2024-02-21T06:22:12;24.30;44.30
51613;DHT22;37694;51.748;14.326;2024-02-21T06:24:38;24.30;44.70
51613;DHT22;37694;51.748;14.326;2024-02-21T06:27:06;24.30;44.50
51613;DHT22;37694;51.748;14.326;2024-02-21T06:29:33;24.40;44.60
51613;DHT22;37694;51.748;14.326;2024-02-21T06:31:59;24.40;44.60
51613;DHT22;37694;51.748;14.326;2024-02-21T06:34:24;24.30;44.60
51613;DHT22;37694;51.748;14.326;2024-02-21T06:36:50;24.30;45.60
51613;DHT22;37694;51.748;14.326;2024-02-21T06:39:16;24.30;45.10
51613;DHT22;37694;51.748;14.326;2024-02-21T06:41:42;24.30;44.90
51613;DHT22;37694;51.748;14.326;2024-02-21T06:44:08;24.30;45.30
51613;DHT22;37694;51.748;14.326;2024-02-21T06:46:34;24.30;44.90
51613;DHT22;37694;51.748;14.326;2024-02-21T06:49:01;24.20;44.40
51613;DHT22;37694;51.748;14.326;2024-02-21T06:51:27;24.20;44.40
51613;DHT22;37694;51.748;14.326;2024-02-21T06:53:54;24.20;44.30
51613;DHT22;37694;51.748;14.326;2024-02-21T06:56:20;24.20;44.20
51613;DHT22;37694;51.748;14.326;2024-02-21T06:58:46;24.10;44.20
51613;DHT22;37694;51.748;14.326;2024-02-21T07:01:12;24.10;44.30
51613;DHT22;37694;51.748;14.326;2024-02-21T07:03:37;24.10;44.60
51613;DHT22;37694;51.748;14.326;2024-02-21T07:06:03;24.10;44.70
51613;DHT22;37694;51.748;14.326;2024-02-21T07:08:29;24.00;44.20
51613;DHT22;37694;51.748;14.326;2024-02-21T07:10:55;24.00;44.60
51613;DHT22;37694;51.748;14.326;2024-02-21T07:13:21;24.00;44.50
51613;DHT22;37694;51.748;14.326;2024-02-21T07:15:48;23.90;44.30
51613;DHT22;37694;51.748;14.326;2024-02-21T07:18:14;23.80;44.80
51613;DHT22;37694;51.748;14.326;2024-02-21T07:20:39;23.70;45.00
51613;DHT22;37694;51.748;14.326;2024-02-21T07:23:07;23.70;45.10
51613;DHT22;37694;51.748;14.326;2024-02-21T07:25:33;23.70;45.00
51613;DHT22;37694;51.748;14.326;2024-02-21T07:27:59;23.70;45.00
51613;DHT22;37694;51.748;14.326;2024-02-21T07:30:24;23.80;45.00
51613;DHT22;37694;51.748;14.326;2024-02-21T07:32:50;23.90;44.70
51613;DHT22;37694;51.748;14.326;2024-02-21T07:35:17;23.90;44.50
51613;DHT22;37694;51.748;14.326;2024-02-21T07:37:43;24.00;44.40
51613;DHT22;37694;51.748;14.326;2024-02-21T07:40:15;24.10;44.30
51613;DHT22;37694;51.748;14.326;2024-02-21T07:42:42;24.10;44.10
51613;DHT22;37694;51.748;14.326;2024-02-21T07:45:08;24.20;44.10
51613;DHT22;37694;51.748;14.326;2024-02-21T07:47:34;24.20;44.10
51613;DHT22;37694;51.748;14.326;2024-02-21T07:50:01;24.20;44.00
51613;DHT22;37694;51.748;14.326;2024-02-21T07:52:27;24.20;44.00
51613;DHT22;37694;51.748;14.326;2024-02-21T07:54:53;24.20;44.00
51613;DHT22;37694;51.748;14.326;2024-02-21T07:57:19;24.20;44.00
51613;DHT22;37694;51.748;14.326;2024-02-21T07:59:44;24.20;44.00
51613;DHT22;37694;51.748;14.326;2024-02-21T08:02:15;24.20;44.00
51613;DHT22;37694;51.748;14.326;2024-02-21T08:04:41;24.20;44.10
51613;DHT22;37694;51.748;14.326;2024-02-21T08:07:07;24.10;44.00
51613;DHT22;37694;51.748;14.326;2024-02-21T08:09:33;24.10;44.00
51613;DHT22;37694;51.748;14.326;2024-02-21T08:11:58;24.10;44.10
51613;DHT22;37694;51.748;14.326;2024-02-21T08:14:24;24.10;44.10
51613;DHT22;37694;51.748;14.326;2024-02-21T08:16:52;24.10;43.90
51613;DHT22;37694;51.748;14.326;2024-02-21T08:19:19;24.20;43.80
51613;DHT22;37694;51.748;14.326;2024-02-21T08:21:45;24.20;43.60
51613;DHT22;37694;51.748;14.326;2024-02-21T08:24:13;24.20;43.50
51613;DHT22;37694;51.748;14.326;2024-02-21T08:26:41;24.20;43.40
51613;DHT22;37694;51.748;14.326;2024-02-21T08:29:06;24.20;43.30
51613;DHT22;37694;51.748;14.326;2024-02-21T08:31:32;24.20;43.20
51613;DHT22;37694;51.748;14.326;2024-02-21T08:34:00;24.20;43.30
51613;DHT22;37694;51.748;14.326;2024-02-21T08:36:32;24.20;43.20
51613;DHT22;37694;51.748;14.326;2024-02-21T08:38:58;24.20;43.10
51613;DHT22;37694;51.748;14.326;2024-02-21T08:41:24;24.20;43.10
51613;DHT22;37694;51.748;14.326;2024-02-21T08:43:51;24.20;43.20
51613;DHT22;37694;51.748;14.326;2024-02-21T08:46:17;24.10;43.00
51613;DHT22;37694;51.748;14.326;2024-02-21T08:48:43;24.10;43.10
51613;DHT22;37694;51.748;14.326;2024-02-21T08:51:12;24.10;43.30
51613;DHT22;37694;51.748;14.326;2024-02-21T08:53:37;24.10;43.10
51613;DHT22;37694;51.748;14.326;2024-02-21T08:56:04;24.10;43.20
51613;DHT22;37694;51.748;14.326;2024-02-21T08:58:29;24.10;43.10
51613;DHT22;37694;51.748;14.326;2024-02-21T09:00:55;24.10;43.20
51613;DHT22;37694;51.748;14.326;2024-02-21T09:03:22;24.00;43.00
51613;DHT22;37694;51.748;14.326;2024-02-21T09:05:48;24.00;43.00
51613;DHT22;37694;51.748;14.326;2024-02-21T09:08:14;24.00;43.00
51613;DHT22;37694;51.748;14.326;2024-02-21T09:10:39;24.00;42.90
51613;DHT22;37694;51.748;14.326;2024-02-21T09:13:05;24.00;42.90
51613;DHT22;37694;51.748;14.326;2024-02-21T09:15:33;24.00;42.80
51613;DHT22;37694;51.748;14.326;2024-02-21T09:17:58;23.90;42.80
51613;DHT22;37694;51.748;14.326;2024-02-21T09:20:24;23.90;42.80
51613;DHT22;37694;51.748;14.326;2024-02-21T09:22:50;23.90;42.70
51613;DHT22;37694;51.748;14.326;2024-02-21T09:25:15;23.90;42.70
51613;DHT22;37694;51.748;14.326;2024-02-21T09:27:43;23.90;42.70
51613;DHT22;37694;51.748;14.326;2024-02-21T09:30:09;23.90;42.70
51613;DHT22;37694;51.748;14.326;2024-02-21T09:32:35;23.90;42.70
51613;DHT22;37694;51.748;14.326;2024-02-21T09:35:01;23.90;43.50
51613;DHT22;37694;51.748;14.326;2024-02-21T09:37:27;23.90;42.60
51613;DHT22;37694;51.748;14.326;2024-02-21T09:39:53;23.90;42.60
51613;DHT22;37694;51.748;14.326;2024-02-21T09:42:20;23.90;42.70
51613;DHT22;37694;51.748;14.326;2024-02-21T09:44:48;23.80;42.60
51613;DHT22;37694;51.748;14.326;2024-02-21T09:50:17;23.80;42.60
51613;DHT22;37694;51.748;14.326;2024-02-21T09:52:44;23.80;42.80
51613;DHT22;37694;51.748;14.326;2024-02-21T09:55:10;23.80;42.80
51613;DHT22;37694;51.748;14.326;2024-02-21T09:57:39;23.70;42.60
51613;DHT22;37694;51.748;14.326;2024-02-21T10:00:05;23.70;42.60
51613;DHT22;37694;51.748;14.326;2024-02-21T10:02:34;23.70;42.60
51613;DHT22;37694;51.748;14.326;2024-02-21T10:04:59;23.80;42.70
51613;DHT22;37694;51.748;14.326;2024-02-21T10:07:25;23.70;42.60
51613;DHT22;37694;51.748;14.326;2024-02-21T10:10:03;23.70;42.60
51613;DHT22;37694;51.748;14.326;2024-02-21T10:12:29;23.70;42.60
51613;DHT22;37694;51.748;14.326;2024-02-21T10:15:02;23.70;42.60
51613;DHT22;37694;51.748;14.326;2024-02-21T10:17:28;23.70;42.60
51613;DHT22;37694;51.748;14.326;2024-02-21T10:19:53;23.70;42.60
51613;DHT22;37694;51.748;14.326;2024-02-21T10:22:19;23.70;42.60
51613;DHT22;37694;51.748;14.326;2024-02-21T10:24:48;23.60;42.50
51613;DHT22;37694;51.748;14.326;2024-02-21T10:27:14;23.60;42.40
51613;DHT22;37694;51.748;14.326;2024-02-21T10:29:40;23.60;42.50
51613;DHT22;37694;51.748;14.326;2024-02-21T10:32:10;23.60;42.40
51613;DHT22;37694;51.748;14.326;2024-02-21T10:34:38;23.60;42.50
51613;DHT22;37694;51.748;14.326;2024-02-21T10:37:09;23.60;42.40
51613;DHT22;37694;51.748;14.326;2024-02-21T10:39:39;23.60;42.50
51613;DHT22;37694;51.748;14.326;2024-02-21T10:42:05;23.60;42.50
51613;DHT22;37694;51.748;14.326;2024-02-21T10:44:32;23.60;42.50
51613;DHT22;37694;51.748;14.326;2024-02-21T10:46:59;23.60;42.50
51613;DHT22;37694;51.748;14.326;2024-02-21T10:49:30;23.60;42.50
51613;DHT22;37694;51.748;14.326;2024-02-21T10:52:09;23.60;42.40
51613;DHT22;37694;51.748;14.326;2024-02-21T10:57:13;23.60;42.40
51613;DHT22;37694;51.748;14.326;2024-02-21T10:59:40;23.50;42.50
51613;DHT22;37694;51.748;14.326;2024-02-21T11:02:06;23.50;42.50
51613;DHT22;37694;51.748;14.326;2024-02-21T11:04:33;23.50;42.30
51613;DHT22;37694;51.748;14.326;2024-02-21T11:07:06;23.50;42.40
51613;DHT22;37694;51.748;14.326;2024-02-21T11:09:33;23.50;42.30
51613;DHT22;37694;51.748;14.326;2024-02-21T11:12:01;23.40;42.30
51613;DHT22;37694;51.748;14.326;2024-02-21T11:14:28;23.40;42.30
51613;DHT22;37694;51.748;14.326;2024-02-21T11:16:54;23.40;42.30
51613;DHT22;37694;51.748;14.326;2024-02-21T11:19:25;23.40;42.30
51613;DHT22;37694;51.748;14.326;2024-02-21T11:21:51;23.40;42.20
51613;DHT22;37694;51.748;14.326;2024-02-21T11:24:33;23.40;42.30
51613;DHT22;37694;51.748;14.326;2024-02-21T11:27:16;23.40;42.20
51613;DHT22;37694;51.748;14.326;2024-02-21T11:29:45;23.40;42.30
51613;DHT22;37694;51.748;14.326;2024-02-21T11:32:11;23.40;42.90
51613;DHT22;37694;51.748;14.326;2024-02-21T11:34:39;23.40;42.30
51613;DHT22;37694;51.748;14.326;2024-02-21T11:37:13;23.40;42.20
51613;DHT22;37694;51.748;14.326;2024-02-21T11:39:41;23.40;42.10
51613;DHT22;37694;51.748;14.326;2024-02-21T11:42:08;23.40;42.10
51613;DHT22;37694;51.748;14.326;2024-02-21T11:44:35;23.40;42.10
51613;DHT22;37694;51.748;14.326;2024-02-21T11:47:03;23.40;42.30
51613;DHT22;37694;51.748;14.326;2024-02-21T11:49:30;23.40;42.20
51613;DHT22;37694;51.748;14.326;2024-02-21T11:52:02;23.40;42.30
51613;DHT22;37694;51.748;14.326;2024-02-21T11:54:32;23.40;42.10
51613;DHT22;37694;51.748;14.326;2024-02-21T11:56:58;23.40;42.10
51613;DHT22;37694;51.748;14.326;2024-02-21T11:59:24;23.50;42.10
51613;DHT22;37694;51.748;14.326;2024-02-21T12:01:50;23.40;42.10
51613;DHT22;37694;51.748;14.326;2024-02-21T12:04:22;23.40;42.20
51613;DHT22;37694;51.748;14.326;2024-02-21T12:06:49;23.40;42.20
51613;DHT22;37694;51.748;14.326;2024-02-21T12:09:18;23.40;42.20
51613;DHT22;37694;51.748;14.326;2024-02-21T12:11:44;23.40;42.20
51613;DHT22;37694;51.748;14.326;2024-02-21T12:14:16;23.40;42.30
51613;DHT22;37694;51.748;14.326;2024-02-21T12:16:42;23.40;42.20
51613;DHT22;37694;51.748;14.326;2024-02-21T12:19:10;23.40;43.20
51613;DHT22;37694;51.748;14.326;2024-02-21T12:21:35;23.40;42.20
51613;DHT22;37694;51.748;14.326;2024-02-21T12:24:17;23.40;42.30
51613;DHT22;37694;51.748;14.326;2024-02-21T12:26:46;23.40;42.20
51613;DHT22;37694;51.748;14.326;2024-02-21T12:29:11;23.30;42.30
51613;DHT22;37694;51.748;14.326;2024-02-21T12:31:40;23.30;42.20
51613;DHT22;37694;51.748;14.326;2024-02-21T12:34:06;23.30;42.10
51613;DHT22;37694;51.748;14.326;2024-02-21T12:36:32;23.30;42.20
51613;DHT22;37694;51.748;14.326;2024-02-21T12:38:59;23.40;42.20
51613;DHT22;37694;51.748;14.326;2024-02-21T12:41:25;23.30;42.10
51613;DHT22;37694;51.748;14.326;2024-02-21T12:43:53;23.30;42.10
51613;DHT22;37694;51.748;14.326;2024-02-21T12:46:18;23.30;42.20
51613;DHT22;37694;51.748;14.326;2024-02-21T12:48:44;23.30;42.20
51613;DHT22;37694;51.748;14.326;2024-02-21T12:51:10;23.30;42.10
51613;DHT22;37694;51.748;14.326;2024-02-21T12:53:36;23.30;42.20
51613;DHT22;37694;51.748;14.326;2024-02-21T12:56:01;23.30;42.10
51613;DHT22;37694;51.748;14.326;2024-02-21T12:58:27;23.30;42.10
51613;DHT22;37694;51.748;14.326;2024-02-21T13:00:57;23.30;42.00
51613;DHT22;37694;51.748;14.326;2024-02-21T13:03:22;23.30;42.00
51613;DHT22;37694;51.748;14.326;2024-02-21T13:05:48;23.30;41.90
51613;DHT22;37694;51.748;14.326;2024-02-21T13:08:14;23.40;41.90
51613;DHT22;37694;51.748;14.326;2024-02-21T13:10:39;23.40;41.80
51613;DHT22;37694;51.748;14.326;2024-02-21T13:13:05;23.40;41.90
51613;DHT22;37694;51.748;14.326;2024-02-21T13:15:31;23.30;41.90
51613;DHT22;37694;51.748;14.326;2024-02-21T13:17:57;23.30;41.80
51613;DHT22;37694;51.748;14.326;2024-02-21T13:20:24;23.30;41.90
51613;DHT22;37694;51.748;14.326;2024-02-21T13:22:50;23.30;42.10
51613;DHT22;37694;51.748;14.326;2024-02-21T13:25:16;23.30;42.10
51613;DHT22;37694;51.748;14.326;2024-02-21T13:27:44;23.30;42.00
51613;DHT22;37694;51.748;14.326;2024-02-21T13:30:10;23.30;42.10
51613;DHT22;37694;51.748;14.326;2024-02-21T13:32:36;23.30;42.20
51613;DHT22;37694;51.748;14.326;2024-02-21T13:35:02;23.30;42.10
51613;DHT22;37694;51.748;14.326;2024-02-21T13:37:28;23.30;42.10
51613;DHT22;37694;51.748;14.326;2024-02-21T13:39:54;23.20;42.00
51613;DHT22;37694;51.748;14.326;2024-02-21T13:42:20;23.20;42.00
51613;DHT22;37694;51.748;14.326;2024-02-21T13:44:46;23.20;42.00
51613;DHT22;37694;51.748;14.326;2024-02-21T13:47:14;23.20;42.10
51613;DHT22;37694;51.748;14.326;2024-02-21T13:49:40;23.20;42.00
51613;DHT22;37694;51.748;14.326;2024-02-21T13:52:05;23.20;42.00
51613;DHT22;37694;51.748;14.326;2024-02-21T13:54:31;23.20;42.00
51613;DHT22;37694;51.748;14.326;2024-02-21T13:56:57;23.20;42.00
51613;DHT22;37694;51.748;14.326;2024-02-21T13:59:23;23.20;42.10
51613;DHT22;37694;51.748;14.326;2024-02-21T14:01:48;23.20;42.10
51613;DHT22;37694;51.748;14.326;2024-02-21T14:04:14;23.20;42.00
51613;DHT22;37694;51.748;14.326;2024-02-21T14:06:40;23.10;41.90
51613;DHT22;37694;51.748;14.326;2024-02-21T14:09:11;23.20;42.20
51613;DHT22;37694;51.748;14.326;2024-02-21T14:11:36;23.10;42.30
51613;DHT22;37694;51.748;14.326;2024-02-21T14:14:04;23.10;42.40
51613;DHT22;37694;51.748;14.326;2024-02-21T14:16:30;23.10;42.40
51613;DHT22;37694;51.748;14.326;2024-02-21T14:18:55;23.20;42.60
51613;DHT22;37694;51.748;14.326;2024-02-21T14:21:21;23.10;42.20
51613;DHT22;37694;51.748;14.326;2024-02-21T14:23:47;23.20;43.10
51613;DHT22;37694;51.748;14.326;2024-02-21T14:26:13;23.20;42.10
51613;DHT22;37694;51.748;14.326;2024-02-21T14:28:39;23.20;42.20
51613;DHT22;37694;51.748;14.326;2024-02-21T14:31:06;23.20;42.20
51613;DHT22;37694;51.748;14.326;2024-02-21T14:33:35;23.10;41.90
51613;DHT22;37694;51.748;14.326;2024-02-21T14:36:01;23.10;41.90
51613;DHT22;37694;51.748;14.326;2024-02-21T14:38:26;23.10;41.50
51613;DHT22;37694;51.748;14.326;2024-02-21T14:40:53;23.10;41.80
51613;DHT22;37694;51.748;14.326;2024-02-21T14:43:18;23.10;41.90
51613;DHT22;37694;51.748;14.326;2024-02-21T14:45:47;23.20;42.10
51613;DHT22;37694;51.748;14.326;2024-02-21T14:48:13;23.20;42.10
51613;DHT22;37694;51.748;14.326;2024-02-21T14:50:39;23.30;42.20
51613;DHT22;37694;51.748;14.326;2024-02-21T14:53:06;23.30;42.20
51613;DHT22;37694;51.748;14.326;2024-02-21T14:55:33;23.40;42.20
51613;DHT22;37694;51.748;14.326;2024-02-21T14:57:59;23.50;42.20
51613;DHT22;37694;51.748;14.326;2024-02-21T15:00:26;23.60;42.20
51613;DHT22;37694;51.748;14.326;2024-02-21T15:02:58;23.60;42.20
51613;DHT22;37694;51.748;14.326;2024-02-21T15:05:24;23.70;42.20
51613;DHT22;37694;51.748;14.326;2024-02-21T15:07:50;23.70;42.10
51613;DHT22;37694;51.748;14.326;2024-02-21T15:10:16;23.80;42.20
51613;DHT22;37694;51.748;14.326;2024-02-21T15:12:45;23.80;42.10
51613;DHT22;37694;51.748;14.326;2024-02-21T15:15:11;23.90;42.00
51613;DHT22;37694;51.748;14.326;2024-02-21T15:17:37;23.90;42.00
51613;DHT22;37694;51.748;14.326;2024-02-21T15:20:03;23.90;41.90